DAL2566 KDTW-KEWR
Flight info
| Callsign | DAL2566 |
|---|---|
| Flight time | 1h 8m |
| Altitude | 37000 |
| Route | PAVYL3 ESSBE SLT FQM3 |
| Aircraft | A320/M-SDE3FGHIRWY/LB1 |
Departure
| Time | 2026-05-06 00:19 |
|---|---|
| Airport | Detroit Metropolitan Wayne County Airport (KDTW) |
Arrival
| Time | 2026-05-06 01:27 |
|---|---|
| Airport | Newark Liberty International Airport (KEWR) |
| Time | Latitude | Longitude | Altitude | Speed | Heading |
|---|---|---|---|---|---|
| 2026-05-05 23:54 | 42.20343 | -83.36107 | 649 ft | 0 kts | 298° |
| 2026-05-06 00:08 | 42.20335 | -83.36089 | 646 ft | 4 kts | 298° |
| 2026-05-06 00:08 | 42.20325 | -83.36063 | 648 ft | 3 kts | 296° |
| 2026-05-06 00:08 | 42.20322 | -83.36039 | 646 ft | 4 kts | 219° |
| 2026-05-06 00:09 | 42.20343 | -83.36021 | 646 ft | 3 kts | 208° |
| 2026-05-06 00:09 | 42.20347 | -83.36018 | 646 ft | 0 kts | 208° |
| 2026-05-06 00:12 | 42.20311 | -83.36046 | 646 ft | 13 kts | 209° |
| 2026-05-06 00:12 | 42.20209 | -83.36119 | 646 ft | 19 kts | 208° |
| 2026-05-06 00:12 | 42.20178 | -83.36279 | 646 ft | 21 kts | 281° |
| 2026-05-06 00:12 | 42.20259 | -83.36402 | 646 ft | 21 kts | 5° |
| 2026-05-06 00:13 | 42.20415 | -83.36304 | 646 ft | 28 kts | 28° |
| 2026-05-06 00:13 | 42.20589 | -83.36175 | 646 ft | 28 kts | 29° |
| 2026-05-06 00:13 | 42.20763 | -83.36049 | 646 ft | 28 kts | 28° |
| 2026-05-06 00:13 | 42.20934 | -83.35922 | 646 ft | 28 kts | 28° |
| 2026-05-06 00:14 | 42.21104 | -83.35797 | 646 ft | 28 kts | 29° |
| 2026-05-06 00:14 | 42.21271 | -83.35676 | 646 ft | 23 kts | 27° |
| 2026-05-06 00:14 | 42.21302 | -83.35652 | 647 ft | 0 kts | 31° |
| 2026-05-06 00:14 | 42.21321 | -83.35636 | 646 ft | 7 kts | 29° |
| 2026-05-06 00:15 | 42.21364 | -83.35605 | 646 ft | 9 kts | 28° |
| 2026-05-06 00:15 | 42.21470 | -83.35527 | 648 ft | 26 kts | 29° |
| 2026-05-06 00:15 | 42.21549 | -83.35333 | 646 ft | 26 kts | 89° |
| 2026-05-06 00:15 | 42.21561 | -83.35092 | 646 ft | 26 kts | 67° |
| 2026-05-06 00:16 | 42.21699 | -83.34900 | 649 ft | 30 kts | 43° |
| 2026-05-06 00:16 | 42.21832 | -83.34702 | 646 ft | 25 kts | 78° |
| 2026-05-06 00:16 | 42.21878 | -83.34483 | 647 ft | 25 kts | 33° |
| 2026-05-06 00:16 | 42.22052 | -83.34356 | 646 ft | 34 kts | 29° |
| 2026-05-06 00:17 | 42.22263 | -83.34200 | 646 ft | 35 kts | 29° |
| 2026-05-06 00:17 | 42.22476 | -83.34049 | 646 ft | 35 kts | 27° |
| 2026-05-06 00:17 | 42.22686 | -83.33889 | 646 ft | 33 kts | 29° |
| 2026-05-06 00:17 | 42.22845 | -83.33762 | 645 ft | 15 kts | 54° |
| 2026-05-06 00:18 | 42.22826 | -83.33653 | 645 ft | 10 kts | 142° |
| 2026-05-06 00:18 | 42.22773 | -83.33654 | 645 ft | 6 kts | 208° |
| 2026-05-06 00:18 | 42.22733 | -83.33686 | 646 ft | 17 kts | 209° |
| 2026-05-06 00:18 | 42.22385 | -83.33944 | 647 ft | 93 kts | 208° |
| 2026-05-06 00:19 | 42.21635 | -83.34494 | 648 ft | 150 kts | 208° |
| 2026-05-06 00:19 | 42.20659 | -83.35208 | 1030 ft | 165 kts | 212° |
| 2026-05-06 00:19 | 42.19638 | -83.35943 | 1772 ft | 167 kts | 210° |
| 2026-05-06 00:19 | 42.18509 | -83.36344 | 2465 ft | 174 kts | 184° |
| 2026-05-06 00:20 | 42.17238 | -83.36267 | 2859 ft | 192 kts | 180° |
| 2026-05-06 00:20 | 42.15844 | -83.36165 | 3200 ft | 212 kts | 180° |
| 2026-05-06 00:20 | 42.14295 | -83.36072 | 3543 ft | 231 kts | 180° |
| 2026-05-06 00:20 | 42.12608 | -83.35978 | 3974 ft | 252 kts | 181° |
| 2026-05-06 00:21 | 42.10785 | -83.35878 | 4537 ft | 270 kts | 181° |
| 2026-05-06 00:21 | 42.08893 | -83.35769 | 5452 ft | 272 kts | 182° |
| 2026-05-06 00:21 | 42.07007 | -83.35602 | 6448 ft | 274 kts | 177° |
| 2026-05-06 00:21 | 42.05197 | -83.34667 | 7315 ft | 286 kts | 153° |
| 2026-05-06 00:22 | 42.03730 | -83.32785 | 8197 ft | 301 kts | 129° |
| 2026-05-06 00:22 | 42.02907 | -83.30148 | 9043 ft | 313 kts | 105° |
| 2026-05-06 00:22 | 42.02485 | -83.27261 | 9902 ft | 316 kts | 104° |
| 2026-05-06 00:22 | 42.02064 | -83.24295 | 10377 ft | 333 kts | 104° |
| 2026-05-06 00:23 | 42.01638 | -83.21116 | 10615 ft | 358 kts | 100° |
| 2026-05-06 00:23 | 42.01550 | -83.17665 | 10978 ft | 377 kts | 88° |
| 2026-05-06 00:23 | 42.01920 | -83.14179 | 11588 ft | 386 kts | 81° |
| 2026-05-06 00:23 | 42.02434 | -83.10601 | 12260 ft | 392 kts | 79° |
| 2026-05-06 00:24 | 42.03226 | -83.07063 | 12949 ft | 398 kts | 72° |
| 2026-05-06 00:24 | 42.04127 | -83.03516 | 13635 ft | 403 kts | 72° |
| 2026-05-06 00:24 | 42.05037 | -82.99932 | 14234 ft | 408 kts | 73° |
| 2026-05-06 00:24 | 42.05957 | -82.96297 | 14840 ft | 413 kts | 73° |
| 2026-05-06 00:25 | 42.06886 | -82.92616 | 15431 ft | 417 kts | 73° |
| 2026-05-06 00:25 | 42.07821 | -82.88894 | 16006 ft | 422 kts | 73° |
| 2026-05-06 00:25 | 42.08765 | -82.85132 | 16596 ft | 427 kts | 73° |
| 2026-05-06 00:25 | 42.09721 | -82.81325 | 17177 ft | 432 kts | 73° |
| 2026-05-06 00:26 | 42.10688 | -82.77473 | 17750 ft | 436 kts | 73° |
| 2026-05-06 00:26 | 42.11665 | -82.73582 | 18321 ft | 440 kts | 73° |
| 2026-05-06 00:26 | 42.12650 | -82.69655 | 18828 ft | 444 kts | 73° |
| 2026-05-06 00:26 | 42.13616 | -82.65692 | 19345 ft | 447 kts | 76° |
| 2026-05-06 00:27 | 42.14236 | -82.61576 | 19852 ft | 449 kts | 86° |
| 2026-05-06 00:27 | 42.14380 | -82.57432 | 20369 ft | 449 kts | 94° |
| 2026-05-06 00:27 | 42.14346 | -82.53207 | 20879 ft | 453 kts | 94° |
| 2026-05-06 00:27 | 42.14317 | -82.48941 | 21380 ft | 457 kts | 94° |
| 2026-05-06 00:28 | 42.14203 | -82.44655 | 21860 ft | 458 kts | 100° |
| 2026-05-06 00:28 | 42.13725 | -82.40411 | 22332 ft | 460 kts | 104° |
| 2026-05-06 00:28 | 42.13188 | -82.36156 | 22784 ft | 464 kts | 104° |
| 2026-05-06 00:28 | 42.12647 | -82.31849 | 23224 ft | 467 kts | 104° |
| 2026-05-06 00:29 | 42.12104 | -82.27507 | 23623 ft | 471 kts | 104° |
| 2026-05-06 00:29 | 42.11556 | -82.23137 | 23983 ft | 475 kts | 104° |
| 2026-05-06 00:29 | 42.11002 | -82.18741 | 24338 ft | 478 kts | 104° |
| 2026-05-06 00:29 | 42.10444 | -82.14314 | 24681 ft | 481 kts | 104° |
| 2026-05-06 00:30 | 42.09882 | -82.09849 | 25026 ft | 485 kts | 104° |
| 2026-05-06 00:30 | 42.09314 | -82.05364 | 25359 ft | 488 kts | 104° |
| 2026-05-06 00:30 | 42.08745 | -82.00909 | 25686 ft | 491 kts | 104° |
| 2026-05-06 00:30 | 42.08155 | -81.96312 | 26028 ft | 494 kts | 104° |
| 2026-05-06 00:31 | 42.07574 | -81.91801 | 26349 ft | 497 kts | 104° |
| 2026-05-06 00:31 | 42.06979 | -81.87208 | 26667 ft | 500 kts | 104° |
| 2026-05-06 00:31 | 42.06378 | -81.82588 | 26977 ft | 503 kts | 104° |
| 2026-05-06 00:31 | 42.05772 | -81.77942 | 27295 ft | 505 kts | 103° |
| 2026-05-06 00:32 | 42.05172 | -81.73269 | 27591 ft | 508 kts | 103° |
| 2026-05-06 00:32 | 42.04577 | -81.68572 | 27884 ft | 511 kts | 103° |
| 2026-05-06 00:32 | 42.04183 | -81.65433 | 28056 ft | 513 kts | 103° |
| 2026-05-06 00:32 | 42.03591 | -81.60706 | 28388 ft | 514 kts | 103° |
| 2026-05-06 00:33 | 42.02993 | -81.55947 | 28680 ft | 516 kts | 103° |
| 2026-05-06 00:33 | 42.02388 | -81.51171 | 28948 ft | 518 kts | 103° |
| 2026-05-06 00:33 | 42.01777 | -81.46386 | 29210 ft | 521 kts | 103° |
| 2026-05-06 00:33 | 42.01158 | -81.41575 | 29456 ft | 523 kts | 103° |
| 2026-05-06 00:34 | 42.00534 | -81.36747 | 29691 ft | 525 kts | 103° |
| 2026-05-06 00:34 | 41.99905 | -81.31901 | 29931 ft | 527 kts | 103° |
| 2026-05-06 00:34 | 41.99273 | -81.27038 | 30098 ft | 529 kts | 102° |
| 2026-05-06 00:34 | 41.98639 | -81.22154 | 30269 ft | 532 kts | 102° |
| 2026-05-06 00:35 | 41.98000 | -81.17254 | 30435 ft | 533 kts | 102° |
| 2026-05-06 00:35 | 41.97353 | -81.12333 | 30603 ft | 535 kts | 103° |
| 2026-05-06 00:35 | 41.96701 | -81.07413 | 30822 ft | 535 kts | 102° |
| 2026-05-06 00:35 | 41.96051 | -81.02496 | 31036 ft | 535 kts | 102° |
| 2026-05-06 00:36 | 41.95399 | -80.97577 | 31247 ft | 535 kts | 102° |
| 2026-05-06 00:36 | 41.94742 | -80.92651 | 31458 ft | 536 kts | 102° |
| 2026-05-06 00:36 | 41.94086 | -80.87730 | 31674 ft | 535 kts | 102° |
| 2026-05-06 00:36 | 41.93429 | -80.82821 | 31956 ft | 533 kts | 102° |
| 2026-05-06 00:37 | 41.92770 | -80.77921 | 32206 ft | 532 kts | 102° |
| 2026-05-06 00:37 | 41.92120 | -80.73097 | 32428 ft | 532 kts | 102° |
| 2026-05-06 00:37 | 41.91448 | -80.68138 | 32655 ft | 533 kts | 102° |
| 2026-05-06 00:37 | 41.90786 | -80.63247 | 32884 ft | 533 kts | 102° |
| 2026-05-06 00:38 | 41.90133 | -80.58422 | 33128 ft | 533 kts | 102° |
| 2026-05-06 00:38 | 41.89467 | -80.53532 | 33343 ft | 533 kts | 102° |
| 2026-05-06 00:38 | 41.88797 | -80.48659 | 33631 ft | 531 kts | 102° |
| 2026-05-06 00:38 | 41.88123 | -80.43792 | 33891 ft | 530 kts | 102° |
| 2026-05-06 00:39 | 41.87449 | -80.38934 | 34083 ft | 530 kts | 102° |
| 2026-05-06 00:39 | 41.86775 | -80.34068 | 34260 ft | 531 kts | 102° |
| 2026-05-06 00:39 | 41.86099 | -80.29189 | 34433 ft | 532 kts | 102° |
| 2026-05-06 00:39 | 41.85420 | -80.24307 | 34594 ft | 533 kts | 102° |
| 2026-05-06 00:40 | 41.84736 | -80.19416 | 34767 ft | 534 kts | 102° |
| 2026-05-06 00:40 | 41.84047 | -80.14508 | 34931 ft | 535 kts | 102° |
| 2026-05-06 00:40 | 41.83359 | -80.09610 | 35139 ft | 534 kts | 101° |
| 2026-05-06 00:40 | 41.82667 | -80.04715 | 35306 ft | 535 kts | 101° |
| 2026-05-06 00:41 | 41.81971 | -79.99818 | 35467 ft | 536 kts | 101° |
| 2026-05-06 00:41 | 41.81270 | -79.94898 | 35611 ft | 537 kts | 101° |
| 2026-05-06 00:41 | 41.80569 | -79.89985 | 35757 ft | 538 kts | 101° |
| 2026-05-06 00:41 | 41.79866 | -79.85041 | 35893 ft | 539 kts | 101° |
| 2026-05-06 00:42 | 41.79163 | -79.80105 | 36036 ft | 540 kts | 101° |
| 2026-05-06 00:42 | 41.78467 | -79.75234 | 36206 ft | 539 kts | 101° |
| 2026-05-06 00:42 | 41.77756 | -79.70303 | 36372 ft | 539 kts | 101° |
| 2026-05-06 00:42 | 41.77039 | -79.65365 | 36521 ft | 539 kts | 101° |
| 2026-05-06 00:43 | 41.76317 | -79.60435 | 36657 ft | 540 kts | 101° |
| 2026-05-06 00:43 | 41.75590 | -79.55495 | 36811 ft | 540 kts | 101° |
| 2026-05-06 00:43 | 41.74868 | -79.50560 | 36877 ft | 541 kts | 101° |
| 2026-05-06 00:44 | 41.73422 | -79.40657 | 36864 ft | 541 kts | 101° |
| 2026-05-06 00:44 | 41.71964 | -79.30792 | 36866 ft | 539 kts | 101° |
| 2026-05-06 00:45 | 41.70497 | -79.20954 | 36859 ft | 539 kts | 101° |
| 2026-05-06 00:45 | 41.69022 | -79.11108 | 36848 ft | 539 kts | 101° |
| 2026-05-06 00:46 | 41.67534 | -79.01273 | 36841 ft | 538 kts | 101° |
| 2026-05-06 00:46 | 41.66053 | -78.91469 | 36817 ft | 537 kts | 101° |
| 2026-05-06 00:47 | 41.64565 | -78.81684 | 36839 ft | 537 kts | 101° |
| 2026-05-06 00:47 | 41.63080 | -78.71976 | 36879 ft | 536 kts | 101° |
| 2026-05-06 00:48 | 41.61577 | -78.62217 | 36882 ft | 535 kts | 101° |
| 2026-05-06 00:48 | 41.60065 | -78.52493 | 36878 ft | 534 kts | 101° |
| 2026-05-06 00:49 | 41.58546 | -78.42782 | 36868 ft | 533 kts | 101° |
| 2026-05-06 00:49 | 41.57028 | -78.33090 | 36852 ft | 533 kts | 101° |
| 2026-05-06 00:50 | 41.55511 | -78.23466 | 36847 ft | 532 kts | 101° |
| 2026-05-06 00:50 | 41.53970 | -78.13807 | 36844 ft | 532 kts | 101° |
| 2026-05-06 00:51 | 41.52422 | -78.04145 | 36844 ft | 532 kts | 101° |
| 2026-05-06 00:51 | 41.50872 | -77.94492 | 36820 ft | 532 kts | 101° |
| 2026-05-06 00:52 | 41.49473 | -77.84804 | 36837 ft | 530 kts | 99° |
| 2026-05-06 00:52 | 41.48171 | -77.75132 | 36844 ft | 530 kts | 99° |
| 2026-05-06 00:53 | 41.46837 | -77.65472 | 36847 ft | 529 kts | 100° |
| 2026-05-06 00:53 | 41.45443 | -77.55838 | 36836 ft | 529 kts | 100° |
| 2026-05-06 00:54 | 41.45009 | -77.52867 | 36842 ft | 528 kts | 100° |
| 2026-05-06 00:54 | 41.44253 | -77.47374 | 36862 ft | 528 kts | 99° |
| 2026-05-06 00:55 | 41.42856 | -77.37772 | 36853 ft | 527 kts | 100° |
| 2026-05-06 00:55 | 41.41422 | -77.28205 | 36849 ft | 527 kts | 101° |
| 2026-05-06 00:56 | 41.41256 | -77.27097 | 36845 ft | 526 kts | 101° |
| 2026-05-06 00:56 | 41.41007 | -77.25463 | 36603 ft | 526 kts | 101° |
| 2026-05-06 00:56 | 41.40279 | -77.20682 | 35909 ft | 523 kts | 101° |
| 2026-05-06 00:57 | 41.39578 | -77.15947 | 35281 ft | 519 kts | 101° |
| 2026-05-06 00:57 | 41.38894 | -77.11239 | 34669 ft | 516 kts | 102° |
| 2026-05-06 00:57 | 41.38213 | -77.06566 | 34067 ft | 513 kts | 102° |
| 2026-05-06 00:57 | 41.37529 | -77.01921 | 33422 ft | 510 kts | 102° |
| 2026-05-06 00:58 | 41.36841 | -76.97285 | 32751 ft | 509 kts | 103° |
| 2026-05-06 00:58 | 41.36151 | -76.92662 | 32096 ft | 509 kts | 103° |
| 2026-05-06 00:58 | 41.35455 | -76.88039 | 31450 ft | 509 kts | 103° |
| 2026-05-06 00:58 | 41.34754 | -76.83414 | 30812 ft | 508 kts | 103° |
| 2026-05-06 00:59 | 41.34049 | -76.78821 | 30186 ft | 507 kts | 105° |
| 2026-05-06 00:59 | 41.33034 | -76.74409 | 29512 ft | 503 kts | 112° |
| 2026-05-06 00:59 | 41.31853 | -76.70018 | 28791 ft | 503 kts | 112° |
| 2026-05-06 00:59 | 41.30682 | -76.65628 | 28095 ft | 503 kts | 113° |
| 2026-05-06 01:00 | 41.29510 | -76.61235 | 27398 ft | 503 kts | 113° |
| 2026-05-06 01:00 | 41.28345 | -76.56882 | 26732 ft | 497 kts | 114° |
| 2026-05-06 01:00 | 41.27194 | -76.52570 | 26074 ft | 492 kts | 114° |
| 2026-05-06 01:00 | 41.26058 | -76.48315 | 25416 ft | 486 kts | 114° |
| 2026-05-06 01:01 | 41.24935 | -76.44116 | 24796 ft | 479 kts | 114° |
| 2026-05-06 01:01 | 41.23820 | -76.39971 | 24185 ft | 473 kts | 115° |
| 2026-05-06 01:01 | 41.22717 | -76.35878 | 23595 ft | 468 kts | 115° |
| 2026-05-06 01:01 | 41.21624 | -76.31833 | 22933 ft | 463 kts | 115° |
| 2026-05-06 01:02 | 41.20534 | -76.27837 | 22257 ft | 458 kts | 115° |
| 2026-05-06 01:02 | 41.19451 | -76.23877 | 21591 ft | 455 kts | 115° |
| 2026-05-06 01:02 | 41.18377 | -76.19940 | 20937 ft | 451 kts | 115° |
| 2026-05-06 01:02 | 41.17325 | -76.16084 | 20308 ft | 448 kts | 114° |
| 2026-05-06 01:03 | 41.16254 | -76.12161 | 19663 ft | 445 kts | 114° |
| 2026-05-06 01:03 | 41.15202 | -76.08318 | 19115 ft | 441 kts | 114° |
| 2026-05-06 01:03 | 41.14155 | -76.04506 | 18916 ft | 439 kts | 114° |
| 2026-05-06 01:03 | 41.13126 | -76.00751 | 18901 ft | 439 kts | 114° |
| 2026-05-06 01:04 | 41.12082 | -75.96946 | 18905 ft | 438 kts | 114° |
| 2026-05-06 01:04 | 41.11041 | -75.93147 | 18371 ft | 437 kts | 114° |
| 2026-05-06 01:04 | 41.10009 | -75.89376 | 17745 ft | 434 kts | 114° |
| 2026-05-06 01:04 | 41.08973 | -75.85617 | 17082 ft | 432 kts | 114° |
| 2026-05-06 01:05 | 41.07943 | -75.81894 | 16437 ft | 430 kts | 114° |
| 2026-05-06 01:05 | 41.06915 | -75.78181 | 15804 ft | 428 kts | 114° |
| 2026-05-06 01:05 | 41.05890 | -75.74485 | 15183 ft | 426 kts | 114° |
| 2026-05-06 01:05 | 41.04868 | -75.70802 | 14599 ft | 425 kts | 113° |
| 2026-05-06 01:06 | 41.03848 | -75.67135 | 14006 ft | 423 kts | 113° |
| 2026-05-06 01:06 | 41.02830 | -75.63487 | 13398 ft | 421 kts | 113° |
| 2026-05-06 01:06 | 41.01823 | -75.59875 | 13053 ft | 415 kts | 113° |
| 2026-05-06 01:06 | 41.00830 | -75.56311 | 12976 ft | 411 kts | 113° |
| 2026-05-06 01:07 | 40.99842 | -75.52759 | 12678 ft | 407 kts | 113° |
| 2026-05-06 01:07 | 40.98906 | -75.49386 | 12336 ft | 383 kts | 114° |
| 2026-05-06 01:07 | 40.98008 | -75.46143 | 12025 ft | 360 kts | 114° |
| 2026-05-06 01:07 | 40.97164 | -75.43113 | 11728 ft | 344 kts | 114° |
| 2026-05-06 01:08 | 40.96348 | -75.40220 | 11419 ft | 337 kts | 114° |
| 2026-05-06 01:08 | 40.95529 | -75.37331 | 11121 ft | 333 kts | 114° |
| 2026-05-06 01:08 | 40.94722 | -75.34480 | 10824 ft | 329 kts | 115° |
| 2026-05-06 01:08 | 40.93929 | -75.31673 | 10522 ft | 323 kts | 115° |
| 2026-05-06 01:09 | 40.93149 | -75.28911 | 10237 ft | 318 kts | 115° |
| 2026-05-06 01:09 | 40.92374 | -75.26171 | 9951 ft | 317 kts | 115° |
| 2026-05-06 01:09 | 40.91604 | -75.23460 | 9655 ft | 314 kts | 115° |
| 2026-05-06 01:09 | 40.90838 | -75.20767 | 9346 ft | 311 kts | 116° |
| 2026-05-06 01:10 | 40.90079 | -75.18098 | 9057 ft | 310 kts | 116° |
| 2026-05-06 01:10 | 40.89326 | -75.15436 | 8768 ft | 308 kts | 116° |
| 2026-05-06 01:10 | 40.88580 | -75.12787 | 8488 ft | 307 kts | 116° |
| 2026-05-06 01:10 | 40.87836 | -75.10152 | 8204 ft | 305 kts | 116° |
| 2026-05-06 01:11 | 40.87098 | -75.07530 | 7923 ft | 304 kts | 116° |
| 2026-05-06 01:11 | 40.86361 | -75.04913 | 7641 ft | 304 kts | 115° |
| 2026-05-06 01:11 | 40.85622 | -75.02296 | 7355 ft | 304 kts | 116° |
| 2026-05-06 01:11 | 40.84922 | -74.99662 | 7099 ft | 305 kts | 108° |
| 2026-05-06 01:12 | 40.84876 | -74.96848 | 6958 ft | 312 kts | 82° |
| 2026-05-06 01:12 | 40.85332 | -74.94074 | 6966 ft | 312 kts | 78° |
| 2026-05-06 01:12 | 40.85842 | -74.91353 | 6966 ft | 300 kts | 78° |
| 2026-05-06 01:12 | 40.86345 | -74.88690 | 6970 ft | 298 kts | 78° |
| 2026-05-06 01:13 | 40.86845 | -74.86044 | 6974 ft | 297 kts | 78° |
| 2026-05-06 01:13 | 40.87350 | -74.83397 | 6924 ft | 298 kts | 77° |
| 2026-05-06 01:13 | 40.87855 | -74.80742 | 6830 ft | 298 kts | 78° |
| 2026-05-06 01:13 | 40.88359 | -74.78094 | 6741 ft | 297 kts | 78° |
| 2026-05-06 01:14 | 40.89354 | -74.73016 | 6546 ft | 271 kts | 78° |
| 2026-05-06 01:14 | 40.89831 | -74.70619 | 6449 ft | 270 kts | 78° |
| 2026-05-06 01:14 | 40.90304 | -74.68219 | 6329 ft | 269 kts | 77° |
| 2026-05-06 01:15 | 40.90777 | -74.65830 | 6184 ft | 268 kts | 78° |
| 2026-05-06 01:15 | 40.91260 | -74.63451 | 6035 ft | 268 kts | 78° |
| 2026-05-06 01:15 | 40.91745 | -74.61070 | 5887 ft | 268 kts | 77° |
| 2026-05-06 01:15 | 40.92222 | -74.58694 | 5737 ft | 267 kts | 78° |
| 2026-05-06 01:16 | 40.92708 | -74.56328 | 5583 ft | 266 kts | 77° |
| 2026-05-06 01:16 | 40.93196 | -74.53970 | 5443 ft | 265 kts | 78° |
| 2026-05-06 01:16 | 40.93688 | -74.51621 | 5300 ft | 266 kts | 78° |
| 2026-05-06 01:16 | 40.94182 | -74.49272 | 5160 ft | 265 kts | 77° |
| 2026-05-06 01:17 | 40.94594 | -74.46917 | 5037 ft | 258 kts | 93° |
| 2026-05-06 01:17 | 40.94335 | -74.44660 | 4999 ft | 245 kts | 114° |
| 2026-05-06 01:17 | 40.93797 | -74.42526 | 4998 ft | 245 kts | 117° |
| 2026-05-06 01:17 | 40.93227 | -74.40393 | 4992 ft | 246 kts | 117° |
| 2026-05-06 01:18 | 40.92653 | -74.38256 | 5006 ft | 247 kts | 117° |
| 2026-05-06 01:18 | 40.92084 | -74.36142 | 4997 ft | 247 kts | 117° |
| 2026-05-06 01:18 | 40.91503 | -74.34006 | 4997 ft | 248 kts | 117° |
| 2026-05-06 01:18 | 40.90913 | -74.31867 | 4998 ft | 248 kts | 117° |
| 2026-05-06 01:19 | 40.90313 | -74.29722 | 4992 ft | 250 kts | 117° |
| 2026-05-06 01:19 | 40.89702 | -74.27567 | 4997 ft | 251 kts | 117° |
| 2026-05-06 01:19 | 40.89090 | -74.25399 | 4998 ft | 252 kts | 117° |
| 2026-05-06 01:19 | 40.88481 | -74.23225 | 5000 ft | 253 kts | 117° |
| 2026-05-06 01:20 | 40.87873 | -74.21046 | 4998 ft | 253 kts | 117° |
| 2026-05-06 01:20 | 40.87266 | -74.18865 | 4999 ft | 252 kts | 117° |
| 2026-05-06 01:20 | 40.86663 | -74.16703 | 4935 ft | 250 kts | 117° |
| 2026-05-06 01:20 | 40.86059 | -74.14532 | 4519 ft | 255 kts | 117° |
| 2026-05-06 01:21 | 40.85455 | -74.12335 | 4088 ft | 253 kts | 118° |
| 2026-05-06 01:21 | 40.84880 | -74.10165 | 3684 ft | 248 kts | 117° |
| 2026-05-06 01:21 | 40.84319 | -74.08016 | 3256 ft | 245 kts | 117° |
| 2026-05-06 01:21 | 40.83778 | -74.05913 | 2994 ft | 237 kts | 119° |
| 2026-05-06 01:22 | 40.82992 | -74.04187 | 2972 ft | 203 kts | 151° |
| 2026-05-06 01:22 | 40.81831 | -74.03492 | 3019 ft | 177 kts | 182° |
| 2026-05-06 01:22 | 40.80676 | -74.03669 | 2833 ft | 160 kts | 207° |
| 2026-05-06 01:22 | 40.79904 | -74.04613 | 2609 ft | 153 kts | 239° |
| 2026-05-06 01:23 | 40.79616 | -74.05946 | 2390 ft | 149 kts | 253° |
| 2026-05-06 01:23 | 40.79593 | -74.07257 | 2157 ft | 144 kts | 267° |
| 2026-05-06 01:23 | 40.79742 | -74.08516 | 2047 ft | 130 kts | 252° |
| 2026-05-06 01:23 | 40.79489 | -74.09580 | 1986 ft | 117 kts | 230° |
| 2026-05-06 01:24 | 40.79129 | -74.10118 | 1919 ft | 118 kts | 216° |
| 2026-05-06 01:24 | 40.78401 | -74.10642 | 1809 ft | 120 kts | 207° |
| 2026-05-06 01:24 | 40.77656 | -74.11119 | 1678 ft | 118 kts | 206° |
| 2026-05-06 01:24 | 40.76924 | -74.11584 | 1533 ft | 120 kts | 206° |
| 2026-05-06 01:25 | 40.76165 | -74.12049 | 1386 ft | 120 kts | 207° |
| 2026-05-06 01:25 | 40.75408 | -74.12541 | 1227 ft | 125 kts | 205° |
| 2026-05-06 01:25 | 40.74605 | -74.13058 | 1053 ft | 132 kts | 205° |
| 2026-05-06 01:25 | 40.73775 | -74.13590 | 885 ft | 136 kts | 206° |
| 2026-05-06 01:26 | 40.72931 | -74.14125 | 716 ft | 133 kts | 206° |
| 2026-05-06 01:26 | 40.72110 | -74.14668 | 562 ft | 133 kts | 206° |
| 2026-05-06 01:26 | 40.71268 | -74.15185 | 362 ft | 131 kts | 208° |
| 2026-05-06 01:26 | 40.70450 | -74.15710 | 184 ft | 133 kts | 206° |
| 2026-05-06 01:27 | 40.69621 | -74.16242 | 33 ft | 131 kts | 205° |
| 2026-05-06 01:27 | 40.68921 | -74.16687 | 22 ft | 86 kts | 206° |
| 2026-05-06 01:27 | 40.68533 | -74.16934 | 21 ft | 41 kts | 206° |
| 2026-05-06 01:27 | 40.68329 | -74.17094 | 22 ft | 30 kts | 219° |
| 2026-05-06 01:28 | 40.68210 | -74.17283 | 22 ft | 24 kts | 236° |
| 2026-05-06 01:28 | 40.68148 | -74.17444 | 21 ft | 16 kts | 272° |
| 2026-05-06 01:28 | 40.68195 | -74.17580 | 21 ft | 16 kts | 295° |
| 2026-05-06 01:28 | 40.68264 | -74.17673 | 22 ft | 14 kts | 357° |
| 2026-05-06 01:29 | 40.68319 | -74.17758 | 22 ft | 12 kts | 296° |
| 2026-05-06 01:29 | 40.68350 | -74.17851 | 22 ft | 11 kts | 295° |
| 2026-05-06 01:29 | 40.68384 | -74.17962 | 22 ft | 15 kts | 271° |
| 2026-05-06 01:29 | 40.68281 | -74.18013 | 22 ft | 19 kts | 183° |
| 2026-05-06 01:30 | 40.68238 | -74.18139 | 22 ft | 18 kts | 267° |
| 2026-05-06 01:30 | 40.68237 | -74.18296 | 22 ft | 11 kts | 276° |
| 2026-05-06 01:30 | 40.68267 | -74.18353 | 22 ft | 6 kts | 360° |
| 2026-05-06 01:30 | 40.68296 | -74.18349 | 22 ft | 2 kts | 4° |
| 2026-05-06 01:31 | 40.68302 | -74.18349 | 22 ft | 0 kts | 5° |